Time;durP1;ratioP1;P1;durP2;ratioP2;P2;SDS_P1;SDS_P2;PMS_P1;PMS_P2;Temp;Humidity;BMP_temperature;BMP_pressure;BME280_temperature;BME280_humidity;BME280_pressure;Samples;Min_cycle;Max_cycle;Signal;HPM_P1;HPM_P2
2023/12/06 00:01:27;;;;;;;13.85;9.60;;;;;;;;;;5119212;27;20046;-57
2023/12/06 00:03:52;;;;;;;14.55;9.13;;;;;;;;;;5101793;27;20138;-58
2023/12/06 00:06:19;;;;;;;11.35;7.15;;;;;;;;;;5117645;27;20137;-58
2023/12/06 00:08:45;;;;;;;12.60;8.25;;;;;;;;;;5114346;27;20486;-57
2023/12/06 00:11:11;;;;;;;11.43;8.20;;;;;;;;;;5118358;27;20308;-57
2023/12/06 00:13:37;;;;;;;8.77;6.32;;;;;;;;;;5114863;27;20118;-58
2023/12/06 00:16:04;;;;;;;9.45;6.63;;;;;;;;;;5116464;27;20123;-57
2023/12/06 00:18:30;;;;;;;8.80;6.05;;;;;;;;;;5123871;27;20530;-57
2023/12/06 00:20:56;;;;;;;9.02;6.28;;;;;;;;;;5116459;27;20074;-57
2023/12/06 00:23:22;;;;;;;10.85;7.03;;;;;;;;;;5122014;27;20054;-58
2023/12/06 00:25:48;;;;;;;10.13;7.28;;;;;;;;;;5114024;27;20039;-57
2023/12/06 00:28:14;;;;;;;7.40;5.22;;;;;;;;;;5118382;27;20032;-57
2023/12/06 00:30:39;;;;;;;8.52;6.18;;;;;;;;;;5121171;27;20114;-57
2023/12/06 00:33:06;;;;;;;7.75;5.20;;;;;;;;;;5120628;27;20035;-57
2023/12/06 00:35:32;;;;;;;7.90;5.07;;;;;;;;;;5120302;27;20054;-57
2023/12/06 00:37:58;;;;;;;5.95;4.45;;;;;;;;;;5118056;27;20035;-57
2023/12/06 00:40:24;;;;;;;5.20;4.13;;;;;;;;;;5123841;27;20449;-58
2023/12/06 00:42:50;;;;;;;7.57;5.28;;;;;;;;;;5120533;27;20234;-57
2023/12/06 00:45:16;;;;;;;5.45;4.75;;;;;;;;;;5117348;27;20507;-57
2023/12/06 00:47:42;;;;;;;5.70;4.43;;;;;;;;;;5118691;27;20115;-57
2023/12/06 00:50:09;;;;;;;4.80;3.65;;;;;;;;;;5118149;27;20499;-57
2023/12/06 00:52:35;;;;;;;4.72;3.42;;;;;;;;;;5120168;27;21007;-57
2023/12/06 00:55:01;;;;;;;5.65;4.20;;;;;;;;;;5115116;27;20530;-58
2023/12/06 00:57:27;;;;;;;5.00;4.50;;;;;;;;;;5115621;27;20439;-58
2023/12/06 00:59:53;;;;;;;5.15;3.95;;;;;;;;;;5114354;27;20100;-58
2023/12/06 01:02:19;;;;;;;4.47;3.88;;;;;;;;;;5113445;27;20050;-57
2023/12/06 01:04:46;;;;;;;5.00;3.70;;;;;;;;;;5117556;27;20039;-58
2023/12/06 01:07:12;;;;;;;3.72;3.15;;;;;;;;;;5114047;27;20139;-57
2023/12/06 01:09:38;;;;;;;4.65;3.60;;;;;;;;;;5116348;27;20114;-57
2023/12/06 01:12:04;;;;;;;3.70;3.10;;;;;;;;;;5114787;27;20717;-57
2023/12/06 01:14:30;;;;;;;3.58;2.92;;;;;;;;;;5116992;27;20194;-57
2023/12/06 01:16:56;;;;;;;4.00;3.13;;;;;;;;;;5115642;27;20031;-57
2023/12/06 01:19:22;;;;;;;7.13;3.72;;;;;;;;;;5120610;27;20476;-58
2023/12/06 01:21:48;;;;;;;4.90;3.58;;;;;;;;;;5116363;27;20091;-58
2023/12/06 01:24:14;;;;;;;5.18;3.92;;;;;;;;;;5116143;27;20398;-57
2023/12/06 01:26:40;;;;;;;3.95;3.28;;;;;;;;;;5120468;27;20035;-58
2023/12/06 01:29:08;;;;;;;5.93;4.20;;;;;;;;;;5116474;27;20046;-57
2023/12/06 01:31:34;;;;;;;4.10;3.20;;;;;;;;;;5121005;27;20092;-58
2023/12/06 01:34:00;;;;;;;3.63;3.10;;;;;;;;;;5102839;27;20039;-57
2023/12/06 01:36:26;;;;;;;4.55;3.25;;;;;;;;;;5115994;27;20051;-58
2023/12/06 01:38:52;;;;;;;4.30;3.22;;;;;;;;;;5117269;27;20461;-57
2023/12/06 01:41:18;;;;;;;3.22;2.67;;;;;;;;;;5118654;27;20047;-58
2023/12/06 01:43:44;;;;;;;3.15;2.40;;;;;;;;;;5118943;27;20047;-58
2023/12/06 01:46:11;;;;;;;3.15;2.35;;;;;;;;;;5116427;27;20113;-57
2023/12/06 01:48:37;;;;;;;2.47;2.10;;;;;;;;;;5114696;27;20638;-58
2023/12/06 01:51:04;;;;;;;2.83;2.53;;;;;;;;;;5118359;27;20046;-58
2023/12/06 01:53:31;;;;;;;3.10;2.42;;;;;;;;;;5116708;27;20610;-57
2023/12/06 01:55:57;;;;;;;2.50;2.08;;;;;;;;;;5114217;27;20109;-58
2023/12/06 01:58:23;;;;;;;2.30;2.10;;;;;;;;;;5117656;27;20039;-57
2023/12/06 02:00:49;;;;;;;2.42;2.08;;;;;;;;;;5114316;27;20048;-58
2023/12/06 02:03:16;;;;;;;1.98;1.67;;;;;;;;;;5117241;27;20470;-57
2023/12/06 02:05:43;;;;;;;2.10;1.83;;;;;;;;;;5110986;27;20890;-57
2023/12/06 02:08:09;;;;;;;2.50;2.13;;;;;;;;;;5115053;27;20035;-58
2023/12/06 02:10:35;;;;;;;1.88;1.60;;;;;;;;;;5114030;27;20065;-57
2023/12/06 02:13:01;;;;;;;2.28;2.08;;;;;;;;;;5112214;27;20037;-57
2023/12/06 02:15:27;;;;;;;2.40;2.00;;;;;;;;;;5110382;27;20038;-57
2023/12/06 02:17:53;;;;;;;2.92;2.65;;;;;;;;;;5116519;27;20043;-58
2023/12/06 02:20:20;;;;;;;3.72;2.38;;;;;;;;;;5116696;27;20031;-58
2023/12/06 02:22:46;;;;;;;2.70;2.28;;;;;;;;;;5114860;27;20058;-58
2023/12/06 02:25:13;;;;;;;2.45;2.05;;;;;;;;;;5114353;27;20050;-58
2023/12/06 02:27:43;;;;;;;2.30;2.10;;;;;;;;;;5115966;27;20110;-57
2023/12/06 02:30:09;;;;;;;2.60;2.30;;;;;;;;;;5115152;27;20031;-58
2023/12/06 02:32:36;;;;;;;2.63;2.40;;;;;;;;;;5117216;27;20412;-57
2023/12/06 02:35:04;;;;;;;3.13;2.83;;;;;;;;;;5113444;27;20047;-57
2023/12/06 02:37:30;;;;;;;3.13;2.60;;;;;;;;;;5117856;27;20245;-58
2023/12/06 02:39:57;;;;;;;3.08;2.78;;;;;;;;;;5118439;27;20536;-58
2023/12/06 02:42:23;;;;;;;3.35;2.67;;;;;;;;;;5118961;27;20043;-57
2023/12/06 02:44:49;;;;;;;3.22;2.85;;;;;;;;;;5117772;27;20042;-58
2023/12/06 02:47:15;;;;;;;2.97;2.67;;;;;;;;;;5116652;28;20031;-57
2023/12/06 02:49:41;;;;;;;3.25;2.92;;;;;;;;;;5113323;28;20146;-58
2023/12/06 02:52:07;;;;;;;3.70;3.40;;;;;;;;;;5117836;28;20134;-57
2023/12/06 02:54:33;;;;;;;3.08;2.78;;;;;;;;;;5116946;28;20126;-58
2023/12/06 02:56:59;;;;;;;3.97;3.33;;;;;;;;;;5110792;28;20402;-58
2023/12/06 02:59:25;;;;;;;3.58;3.28;;;;;;;;;;5115367;28;20402;-58
2023/12/06 03:01:51;;;;;;;4.57;3.35;;;;;;;;;;5112349;28;20035;-57
2023/12/06 03:04:17;;;;;;;3.25;2.83;;;;;;;;;;5115660;28;20043;-58
2023/12/06 03:06:43;;;;;;;3.50;2.92;;;;;;;;;;5113567;28;20066;-58
2023/12/06 03:09:09;;;;;;;3.30;2.80;;;;;;;;;;5117658;27;20482;-58
2023/12/06 03:11:35;;;;;;;2.75;2.55;;;;;;;;;;5123246;27;20038;-58
2023/12/06 03:14:01;;;;;;;2.88;2.67;;;;;;;;;;5121454;27;20104;-57
2023/12/06 03:16:27;;;;;;;3.00;2.45;;;;;;;;;;5123264;27;20039;-58
2023/12/06 03:18:53;;;;;;;2.20;2.00;;;;;;;;;;5122246;27;20043;-58
2023/12/06 03:21:19;;;;;;;2.38;2.17;;;;;;;;;;5120861;27;20495;-57
2023/12/06 03:23:45;;;;;;;2.17;1.90;;;;;;;;;;5119710;27;20043;-58
2023/12/06 03:26:11;;;;;;;1.90;1.77;;;;;;;;;;5122324;27;20043;-58
2023/12/06 03:28:37;;;;;;;2.10;1.90;;;;;;;;;;5120597;27;20054;-58
2023/12/06 03:31:04;;;;;;;1.67;1.58;;;;;;;;;;5119179;27;20097;-58
2023/12/06 03:33:30;;;;;;;2.15;1.95;;;;;;;;;;5123599;27;20039;-58
2023/12/06 03:35:56;;;;;;;1.60;1.50;;;;;;;;;;5119375;27;20121;-58
2023/12/06 03:38:22;;;;;;;1.90;1.63;;;;;;;;;;5118475;27;20031;-58
2023/12/06 03:40:48;;;;;;;1.67;1.58;;;;;;;;;;5118749;27;20404;-58
2023/12/06 03:43:14;;;;;;;1.65;1.40;;;;;;;;;;5117237;27;20109;-58
2023/12/06 03:45:40;;;;;;;2.22;2.03;;;;;;;;;;5121530;27;20039;-58
2023/12/06 03:48:06;;;;;;;1.63;1.52;;;;;;;;;;5119187;27;20197;-58
2023/12/06 03:50:31;;;;;;;1.95;1.60;;;;;;;;;;5113235;27;20389;-57
2023/12/06 03:52:57;;;;;;;2.10;1.70;;;;;;;;;;5116667;27;20243;-58
2023/12/06 03:55:24;;;;;;;2.17;1.58;;;;;;;;;;5122902;27;20108;-58
2023/12/06 03:57:50;;;;;;;1.70;1.60;;;;;;;;;;5121381;27;20498;-57
2023/12/06 04:00:16;;;;;;;1.85;1.70;;;;;;;;;;5118507;27;20278;-57
2023/12/06 04:02:42;;;;;;;1.20;1.05;;;;;;;;;;5120568;27;20071;-58
2023/12/06 04:05:08;;;;;;;1.30;1.10;;;;;;;;;;5117218;27;20047;-58
2023/12/06 04:07:34;;;;;;;1.60;1.38;;;;;;;;;;5117037;27;20558;-57
2023/12/06 04:10:01;;;;;;;3.03;2.05;;;;;;;;;;5117816;27;20312;-57
2023/12/06 04:12:27;;;;;;;1.52;1.42;;;;;;;;;;5114811;27;20050;-57
2023/12/06 04:14:54;;;;;;;2.30;2.10;;;;;;;;;;5116476;27;20039;-57
2023/12/06 04:17:20;;;;;;;2.25;1.80;;;;;;;;;;5115235;27;20085;-57
2023/12/06 04:19:47;;;;;;;1.80;1.63;;;;;;;;;;5114263;27;20038;-57
2023/12/06 04:22:13;;;;;;;1.95;1.83;;;;;;;;;;5117726;27;20108;-57
2023/12/06 04:24:39;;;;;;;2.10;1.90;;;;;;;;;;5121036;27;20118;-58
2023/12/06 04:27:05;;;;;;;2.05;1.85;;;;;;;;;;5117717;27;20126;-57
2023/12/06 04:29:32;;;;;;;2.03;1.83;;;;;;;;;;5114814;27;20134;-57
2023/12/06 04:31:58;;;;;;;2.80;1.60;;;;;;;;;;5119151;27;20035;-58
2023/12/06 04:34:24;;;;;;;1.88;1.70;;;;;;;;;;5118810;27;20047;-58
2023/12/06 04:36:50;;;;;;;1.58;1.48;;;;;;;;;;5120289;27;20100;-58
2023/12/06 04:39:16;;;;;;;2.17;1.88;;;;;;;;;;5118297;27;20038;-57
2023/12/06 04:41:42;;;;;;;1.98;1.77;;;;;;;;;;5114626;27;20031;-57
2023/12/06 04:44:08;;;;;;;2.55;1.85;;;;;;;;;;5117806;27;20529;-57
2023/12/06 04:46:34;;;;;;;1.73;1.63;;;;;;;;;;5116744;27;20044;-57
2023/12/06 04:49:00;;;;;;;1.65;1.55;;;;;;;;;;5116635;27;20323;-57
2023/12/06 04:51:25;;;;;;;1.65;1.55;;;;;;;;;;5117747;27;20047;-57
2023/12/06 04:53:51;;;;;;;1.60;1.23;;;;;;;;;;5122115;27;20380;-58
2023/12/06 04:56:17;;;;;;;1.70;1.42;;;;;;;;;;5118280;27;20487;-58
2023/12/06 04:58:43;;;;;;;1.42;1.33;;;;;;;;;;5121290;27;20407;-58
2023/12/06 05:01:09;;;;;;;1.55;1.45;;;;;;;;;;5120021;27;20043;-57
2023/12/06 05:03:35;;;;;;;2.10;1.80;;;;;;;;;;5117806;27;20047;-57
2023/12/06 05:06:03;;;;;;;1.85;1.70;;;;;;;;;;5122527;27;20130;-57
2023/12/06 05:08:29;;;;;;;2.00;1.70;;;;;;;;;;5117036;27;20051;-57
2023/12/06 05:10:55;;;;;;;1.83;1.73;;;;;;;;;;5117371;27;20036;-57
2023/12/06 05:13:21;;;;;;;2.05;1.80;;;;;;;;;;5113626;27;20050;-57
2023/12/06 05:15:47;;;;;;;1.73;1.63;;;;;;;;;;5116515;27;20491;-58
2023/12/06 05:18:13;;;;;;;2.15;1.95;;;;;;;;;;5115751;27;20042;-57
2023/12/06 05:20:39;;;;;;;1.80;1.70;;;;;;;;;;5118162;27;20046;-57
2023/12/06 05:23:05;;;;;;;1.63;1.52;;;;;;;;;;5119210;27;20559;-57
2023/12/06 05:25:32;;;;;;;2.00;1.90;;;;;;;;;;5112661;27;20097;-57
2023/12/06 05:27:58;;;;;;;1.67;1.55;;;;;;;;;;5117610;27;20058;-57
2023/12/06 05:30:24;;;;;;;1.60;1.50;;;;;;;;;;5115937;27;20050;-57
2023/12/06 05:32:51;;;;;;;1.88;1.77;;;;;;;;;;5117605;27;20066;-57
2023/12/06 05:35:17;;;;;;;1.67;1.45;;;;;;;;;;5114023;27;20058;-57
2023/12/06 05:37:43;;;;;;;1.58;1.48;;;;;;;;;;5118204;27;20050;-57
2023/12/06 05:40:09;;;;;;;2.40;2.20;;;;;;;;;;5113396;27;20434;-57
2023/12/06 05:42:35;;;;;;;3.60;3.30;;;;;;;;;;5115301;27;20278;-58
2023/12/06 05:45:04;;;;;;;3.45;3.15;;;;;;;;;;5120062;27;20471;-57
2023/12/06 05:47:30;;;;;;;3.35;3.05;;;;;;;;;;5116823;27;20418;-57
2023/12/06 05:49:56;;;;;;;2.78;2.58;;;;;;;;;;5115423;27;20096;-58
2023/12/06 05:52:22;;;;;;;2.42;2.20;;;;;;;;;;5115287;27;20110;-58
2023/12/06 05:54:48;;;;;;;2.30;2.10;;;;;;;;;;5116884;27;20108;-57
2023/12/06 05:57:14;;;;;;;2.00;1.80;;;;;;;;;;5115728;27;20035;-58
2023/12/06 05:59:40;;;;;;;2.20;1.98;;;;;;;;;;5117775;27;20566;-57
2023/12/06 06:02:06;;;;;;;1.80;1.70;;;;;;;;;;5117731;27;20121;-58
2023/12/06 06:04:32;;;;;;;1.80;1.70;;;;;;;;;;5117043;27;20126;-58
2023/12/06 06:06:58;;;;;;;1.50;1.40;;;;;;;;;;5117527;27;20039;-58
2023/12/06 06:09:24;;;;;;;1.50;1.40;;;;;;;;;;5116996;27;20031;-58
2023/12/06 06:11:50;;;;;;;1.27;1.17;;;;;;;;;;5115866;27;20114;-58
2023/12/06 06:14:16;;;;;;;1.90;1.80;;;;;;;;;;5113512;27;20058;-58
2023/12/06 06:16:42;;;;;;;1.10;1.00;;;;;;;;;;5114562;27;20394;-58
2023/12/06 06:19:08;;;;;;;1.15;1.05;;;;;;;;;;5117131;27;20047;-57
2023/12/06 06:21:34;;;;;;;1.08;0.98;;;;;;;;;;5114264;27;20031;-57
2023/12/06 06:24:00;;;;;;;1.40;1.30;;;;;;;;;;5114756;27;20122;-57
2023/12/06 06:26:26;;;;;;;2.03;1.90;;;;;;;;;;5115975;27;20031;-57
2023/12/06 06:28:52;;;;;;;1.83;1.73;;;;;;;;;;5117011;27;20051;-57
2023/12/06 06:31:18;;;;;;;2.20;1.60;;;;;;;;;;5096138;27;20066;-58
2023/12/06 06:33:44;;;;;;;1.73;1.63;;;;;;;;;;5112789;27;20100;-58
2023/12/06 06:36:10;;;;;;;1.70;1.60;;;;;;;;;;5115378;27;20122;-58
2023/12/06 06:38:37;;;;;;;1.70;1.60;;;;;;;;;;5112683;27;20391;-58
2023/12/06 06:41:04;;;;;;;1.38;1.27;;;;;;;;;;5114536;27;20043;-58
2023/12/06 06:43:30;;;;;;;1.45;1.35;;;;;;;;;;5117283;27;20048;-57
2023/12/06 06:45:56;;;;;;;1.33;1.23;;;;;;;;;;5121843;27;20429;-57
2023/12/06 06:48:22;;;;;;;1.27;1.17;;;;;;;;;;5116494;28;20066;-58
2023/12/06 06:50:48;;;;;;;1.35;1.25;;;;;;;;;;5116531;28;20047;-57
2023/12/06 06:53:14;;;;;;;1.40;1.30;;;;;;;;;;5118443;27;20057;-57
2023/12/06 06:55:40;;;;;;;1.30;1.20;;;;;;;;;;5110551;28;20081;-58
2023/12/06 06:58:06;;;;;;;1.75;1.65;;;;;;;;;;5118281;28;20528;-57
2023/12/06 07:00:32;;;;;;;1.10;1.00;;;;;;;;;;5119683;28;20039;-57
2023/12/06 07:02:58;;;;;;;1.30;1.20;;;;;;;;;;5117309;28;20039;-57
2023/12/06 07:05:24;;;;;;;1.38;1.27;;;;;;;;;;5115943;27;20227;-57
2023/12/06 07:07:49;;;;;;;1.30;1.20;;;;;;;;;;5116424;28;20446;-57
2023/12/06 07:10:16;;;;;;;1.50;1.35;;;;;;;;;;5116827;28;20100;-57
2023/12/06 07:12:41;;;;;;;1.25;1.15;;;;;;;;;;5115221;28;20046;-57
2023/12/06 07:15:14;;;;;;;1.33;1.23;;;;;;;;;;5113211;28;20351;-57
2023/12/06 07:17:40;;;;;;;1.00;0.90;;;;;;;;;;5117380;28;20051;-57
2023/12/06 07:20:08;;;;;;;1.27;1.17;;;;;;;;;;5115326;28;20560;-57
2023/12/06 07:22:34;;;;;;;1.10;1.02;;;;;;;;;;5111714;28;20088;-58
2023/12/06 07:25:00;;;;;;;1.27;1.00;;;;;;;;;;5115468;28;20055;-58
2023/12/06 07:27:26;;;;;;;1.20;1.10;;;;;;;;;;5112974;28;20067;-58
2023/12/06 07:29:53;;;;;;;1.60;1.40;;;;;;;;;;5113013;28;20077;-57
2023/12/06 07:32:19;;;;;;;1.20;1.10;;;;;;;;;;5117852;28;20058;-57
2023/12/06 07:34:45;;;;;;;1.77;1.65;;;;;;;;;;5111897;28;20045;-58
2023/12/06 07:37:10;;;;;;;1.23;1.13;;;;;;;;;;5117121;27;20130;-58
2023/12/06 07:39:37;;;;;;;1.60;1.45;;;;;;;;;;5111799;27;20050;-57
2023/12/06 07:42:03;;;;;;;2.45;2.25;;;;;;;;;;5122177;28;20031;-57
2023/12/06 07:44:29;;;;;;;3.78;2.63;;;;;;;;;;5121724;28;20051;-59
2023/12/06 07:46:55;;;;;;;3.00;2.80;;;;;;;;;;5118905;27;20046;-58
2023/12/06 07:49:21;;;;;;;2.65;2.45;;;;;;;;;;5114958;28;20055;-58
2023/12/06 07:51:47;;;;;;;3.17;2.83;;;;;;;;;;5110805;28;20154;-57
2023/12/06 07:54:13;;;;;;;2.45;2.25;;;;;;;;;;5115834;27;20044;-58
2023/12/06 07:56:40;;;;;;;3.70;2.83;;;;;;;;;;5117685;27;20047;-58
2023/12/06 07:59:06;;;;;;;3.63;3.33;;;;;;;;;;5119398;27;20654;-58
2023/12/06 08:01:32;;;;;;;4.38;4.03;;;;;;;;;;5121376;27;20039;-58
2023/12/06 08:03:58;;;;;;;4.60;4.20;;;;;;;;;;5120328;27;20051;-58
2023/12/06 08:06:24;;;;;;;4.20;3.80;;;;;;;;;;5118671;27;20032;-58
2023/12/06 08:08:50;;;;;;;4.78;3.70;;;;;;;;;;5122461;27;20042;-57
2023/12/06 08:11:17;;;;;;;3.58;3.28;;;;;;;;;;5116821;27;20451;-57
2023/12/06 08:13:43;;;;;;;3.42;3.13;;;;;;;;;;5119399;27;20742;-58
2023/12/06 08:16:09;;;;;;;3.15;2.95;;;;;;;;;;5117983;27;20031;-58
2023/12/06 08:18:35;;;;;;;3.05;2.85;;;;;;;;;;5119910;27;20052;-58
2023/12/06 08:21:04;;;;;;;3.15;2.85;;;;;;;;;;5119013;27;20430;-58
2023/12/06 08:23:30;;;;;;;2.90;2.60;;;;;;;;;;5117875;27;20040;-57
2023/12/06 08:25:56;;;;;;;3.42;3.00;;;;;;;;;;5122147;27;20043;-57
2023/12/06 08:28:22;;;;;;;3.65;2.55;;;;;;;;;;5123785;27;20050;-58
2023/12/06 08:30:48;;;;;;;3.78;3.47;;;;;;;;;;5124427;27;20035;-57
2023/12/06 08:33:15;;;;;;;5.20;4.57;;;;;;;;;;5122972;27;20467;-58
2023/12/06 08:35:41;;;;;;;5.80;5.10;;;;;;;;;;5128366;27;20043;-58
2023/12/06 08:38:07;;;;;;;6.30;5.68;;;;;;;;;;5110820;27;20062;-57
2023/12/06 08:40:33;;;;;;;4.93;4.53;;;;;;;;;;5121552;27;20035;-59
2023/12/06 08:43:00;;;;;;;5.03;4.30;;;;;;;;;;5124515;27;20067;-58
2023/12/06 08:45:26;;;;;;;4.63;3.80;;;;;;;;;;5125888;27;20069;-58
2023/12/06 08:47:52;;;;;;;3.30;3.10;;;;;;;;;;5119954;27;20757;-58
2023/12/06 08:50:18;;;;;;;2.95;2.70;;;;;;;;;;5123274;27;20046;-58
2023/12/06 08:52:45;;;;;;;3.17;2.58;;;;;;;;;;5127154;27;20040;-58
2023/12/06 08:55:11;;;;;;;2.50;2.30;;;;;;;;;;5123964;27;20510;-57
2023/12/06 08:57:37;;;;;;;2.30;2.10;;;;;;;;;;5125231;27;20039;-58
2023/12/06 09:00:07;;;;;;;2.67;2.35;;;;;;;;;;5120765;27;20071;-58
2023/12/06 09:02:33;;;;;;;1.60;1.50;;;;;;;;;;5125026;27;20510;-58
2023/12/06 09:04:59;;;;;;;2.00;1.80;;;;;;;;;;5122747;27;20039;-58
2023/12/06 09:07:25;;;;;;;1.80;1.60;;;;;;;;;;5123273;27;20091;-59
2023/12/06 09:09:51;;;;;;;1.60;1.48;;;;;;;;;;5124297;27;20044;-58
2023/12/06 09:12:17;;;;;;;1.63;1.52;;;;;;;;;;5122622;27;20035;-59
2023/12/06 09:14:43;;;;;;;1.80;1.20;;;;;;;;;;5121214;27;20543;-58
2023/12/06 09:17:09;;;;;;;1.48;1.38;;;;;;;;;;5126532;27;20034;-58
2023/12/06 09:19:35;;;;;;;2.17;2.08;;;;;;;;;;5120764;27;20518;-58
2023/12/06 09:22:01;;;;;;;2.22;2.03;;;;;;;;;;5109384;27;20334;-58
2023/12/06 09:24:27;;;;;;;2.58;2.38;;;;;;;;;;5121898;27;20047;-58
2023/12/06 09:26:53;;;;;;;4.38;3.20;;;;;;;;;;5125784;27;20064;-58
2023/12/06 09:29:19;;;;;;;3.75;3.20;;;;;;;;;;5125128;27;20530;-58
2023/12/06 09:31:45;;;;;;;3.33;3.03;;;;;;;;;;5125949;27;20495;-58
2023/12/06 09:34:11;;;;;;;2.85;2.65;;;;;;;;;;5125405;27;20082;-58
2023/12/06 09:36:39;;;;;;;3.40;2.60;;;;;;;;;;5124755;27;20045;-59
2023/12/06 09:39:05;;;;;;;2.55;2.35;;;;;;;;;;5119136;27;20035;-57
2023/12/06 09:41:34;;;;;;;3.25;2.90;;;;;;;;;;5117742;27;20125;-58
2023/12/06 09:44:00;;;;;;;2.83;2.60;;;;;;;;;;5118957;27;20035;-58
2023/12/06 09:46:27;;;;;;;2.40;2.20;;;;;;;;;;5122846;27;20074;-58
2023/12/06 09:48:53;;;;;;;2.67;2.47;;;;;;;;;;5125915;27;20047;-58
2023/12/06 09:51:19;;;;;;;2.28;2.10;;;;;;;;;;5125416;27;20047;-59
2023/12/06 09:53:46;;;;;;;2.80;2.60;;;;;;;;;;5126304;27;20694;-58
2023/12/06 09:56:13;;;;;;;2.97;2.67;;;;;;;;;;5126250;27;20361;-58
2023/12/06 09:58:39;;;;;;;3.45;3.15;;;;;;;;;;5125201;27;20509;-59
2023/12/06 10:01:05;;;;;;;3.90;3.58;;;;;;;;;;5125952;27;20482;-58
2023/12/06 10:03:31;;;;;;;3.45;3.15;;;;;;;;;;5125260;27;20039;-58
2023/12/06 10:05:58;;;;;;;3.38;3.08;;;;;;;;;;5124758;27;20121;-59
2023/12/06 10:08:25;;;;;;;3.15;2.95;;;;;;;;;;5125149;27;20057;-58
2023/12/06 10:11:13;;;;;;;3.08;2.78;;;;;;;;;;5124186;27;20046;-58
2023/12/06 10:13:40;;;;;;;3.15;2.85;;;;;;;;;;5125068;27;20043;-58
2023/12/06 10:16:16;;;;;;;2.88;2.67;;;;;;;;;;5125122;27;20092;-58
2023/12/06 10:18:42;;;;;;;2.60;2.40;;;;;;;;;;5125268;27;20046;-58
2023/12/06 10:21:09;;;;;;;2.50;2.30;;;;;;;;;;5117755;27;20030;-58
2023/12/06 10:23:35;;;;;;;3.15;2.80;;;;;;;;;;5125349;27;20055;-58
2023/12/06 10:26:03;;;;;;;3.92;3.05;;;;;;;;;;5125503;27;20103;-58
2023/12/06 10:28:29;;;;;;;3.17;2.88;;;;;;;;;;5116212;27;20047;-58
2023/12/06 10:31:05;;;;;;;3.25;2.95;;;;;;;;;;5114574;27;20085;-58
2023/12/06 10:33:31;;;;;;;3.42;3.13;;;;;;;;;;5120767;27;20079;-58
2023/12/06 10:36:00;;;;;;;5.13;4.65;;;;;;;;;;5119036;27;20033;-58
2023/12/06 10:38:26;;;;;;;6.68;4.47;;;;;;;;;;5120338;27;20042;-58
2023/12/06 10:40:52;;;;;;;4.88;4.45;;;;;;;;;;5119909;27;20501;-59
2023/12/06 10:43:18;;;;;;;5.45;4.65;;;;;;;;;;5126384;27;20042;-58
2023/12/06 10:45:46;;;;;;;5.35;4.15;;;;;;;;;;5122593;27;20035;-58
2023/12/06 10:48:12;;;;;;;4.90;4.50;;;;;;;;;;5118632;27;20043;-58
2023/12/06 10:50:39;;;;;;;4.80;4.40;;;;;;;;;;5120767;28;20046;-58
2023/12/06 10:53:05;;;;;;;4.70;4.25;;;;;;;;;;5116466;27;20031;-58
2023/12/06 10:55:32;;;;;;;4.53;4.13;;;;;;;;;;5100368;28;20845;-58
2023/12/06 10:57:59;;;;;;;4.95;4.55;;;;;;;;;;5123049;28;20039;-59
2023/12/06 11:00:26;;;;;;;3.88;3.58;;;;;;;;;;5112929;28;20499;-58
2023/12/06 11:02:52;;;;;;;3.80;3.50;;;;;;;;;;5125019;28;20053;-58
2023/12/06 11:05:19;;;;;;;6.72;5.47;;;;;;;;;;5119794;27;20518;-58
2023/12/06 11:08:04;;;;;;;5.95;5.45;;;;;;;;;;5123214;28;20045;-59
2023/12/06 11:10:39;;;;;;;5.80;5.30;;;;;;;;;;5124619;27;20460;-59
2023/12/06 11:13:24;;;;;;;5.30;4.80;;;;;;;;;;5108747;28;20035;-60
2023/12/06 11:16:01;;;;;;;4.40;4.00;;;;;;;;;;5122440;27;20182;-58
2023/12/06 11:18:31;;;;;;;4.20;3.85;;;;;;;;;;5116672;28;20057;-58
2023/12/06 11:20:57;;;;;;;4.10;3.58;;;;;;;;;;5125184;28;20031;-59
2023/12/06 11:23:23;;;;;;;4.70;4.30;;;;;;;;;;5124676;28;20050;-58
2023/12/06 11:25:49;;;;;;;5.47;4.40;;;;;;;;;;5125444;28;20118;-58
2023/12/06 11:28:17;;;;;;;4.07;3.78;;;;;;;;;;5116067;28;20031;-58
2023/12/06 11:30:57;;;;;;;4.13;3.75;;;;;;;;;;5123630;27;20046;-58
2023/12/06 11:33:24;;;;;;;3.38;3.08;;;;;;;;;;5101792;27;20039;-58
2023/12/06 11:35:54;;;;;;;2.90;2.70;;;;;;;;;;5127498;27;20110;-59
2023/12/06 11:38:20;;;;;;;3.08;2.78;;;;;;;;;;5127994;27;20122;-59
2023/12/06 11:40:50;;;;;;;2.97;2.78;;;;;;;;;;5128101;27;20130;-59
2023/12/06 11:43:16;;;;;;;2.92;2.72;;;;;;;;;;5127187;27;20043;-59
2023/12/06 11:45:42;;;;;;;3.20;2.90;;;;;;;;;;5129247;27;20074;-60
2023/12/06 11:48:12;;;;;;;3.22;2.92;;;;;;;;;;5129321;27;20451;-58
2023/12/06 11:50:47;;;;;;;3.50;3.20;;;;;;;;;;5120737;27;20440;-58
2023/12/06 11:53:13;;;;;;;4.05;3.65;;;;;;;;;;5129338;27;20091;-58
2023/12/06 11:55:42;;;;;;;6.40;5.65;;;;;;;;;;5129224;27;20043;-58
2023/12/06 11:58:10;;;;;;;4.78;4.38;;;;;;;;;;5128353;27;20458;-60
2023/12/06 12:00:43;;;;;;;4.13;3.72;;;;;;;;;;5129395;27;20434;-58
2023/12/06 12:03:12;;;;;;;3.78;3.47;;;;;;;;;;5129229;27;20031;-58
2023/12/06 12:05:38;;;;;;;3.63;3.33;;;;;;;;;;5128511;27;20046;-59
2023/12/06 12:08:07;;;;;;;3.28;2.97;;;;;;;;;;5129294;27;20058;-58
2023/12/06 12:10:34;;;;;;;3.50;3.20;;;;;;;;;;5128557;27;20039;-58
2023/12/06 12:13:00;;;;;;;2.78;2.53;;;;;;;;;;5128720;27;20031;-58
2023/12/06 12:15:26;;;;;;;2.78;2.58;;;;;;;;;;5128170;27;20112;-58
2023/12/06 12:17:52;;;;;;;2.45;2.25;;;;;;;;;;5128660;27;20043;-58
2023/12/06 12:20:18;;;;;;;2.35;2.15;;;;;;;;;;5129119;27;20039;-58
2023/12/06 12:22:44;;;;;;;2.65;2.45;;;;;;;;;;5128882;27;20039;-58
2023/12/06 12:25:11;;;;;;;2.60;2.40;;;;;;;;;;5128051;27;20035;-58
2023/12/06 12:27:37;;;;;;;2.95;2.65;;;;;;;;;;5129370;27;20043;-58
2023/12/06 12:30:04;;;;;;;2.60;2.40;;;;;;;;;;5128852;27;20042;-59
2023/12/06 12:32:31;;;;;;;1.85;1.75;;;;;;;;;;5128799;27;20035;-58
2023/12/06 12:34:58;;;;;;;3.20;3.00;;;;;;;;;;5129518;27;20403;-59
2023/12/06 12:37:24;;;;;;;6.53;3.50;;;;;;;;;;5128918;27;20050;-59
2023/12/06 12:39:50;;;;;;;2.83;2.63;;;;;;;;;;5128006;27;20034;-59
2023/12/06 12:42:16;;;;;;;2.47;2.28;;;;;;;;;;5128340;27;20080;-59
2023/12/06 12:44:42;;;;;;;2.78;2.58;;;;;;;;;;5128641;27;20123;-59
2023/12/06 12:47:09;;;;;;;2.45;2.25;;;;;;;;;;5127687;27;20383;-59
2023/12/06 12:49:36;;;;;;;2.13;1.95;;;;;;;;;;5128344;27;20039;-59
2023/12/06 12:52:02;;;;;;;1.92;1.73;;;;;;;;;;5128316;27;20092;-59
2023/12/06 12:54:28;;;;;;;1.75;1.55;;;;;;;;;;5127982;27;20507;-59
2023/12/06 12:56:55;;;;;;;1.63;1.52;;;;;;;;;;5128606;27;20073;-59
2023/12/06 12:59:21;;;;;;;1.40;1.30;;;;;;;;;;5128379;27;20050;-59
2023/12/06 13:01:50;;;;;;;1.55;1.45;;;;;;;;;;5127704;27;20031;-58
2023/12/06 13:04:16;;;;;;;1.50;1.40;;;;;;;;;;5128212;27;20384;-59
2023/12/06 13:06:42;;;;;;;1.20;1.10;;;;;;;;;;5127208;27;20043;-59
2023/12/06 13:09:08;;;;;;;1.20;1.10;;;;;;;;;;5127835;27;20039;-59
2023/12/06 13:11:34;;;;;;;1.10;1.05;;;;;;;;;;5128057;27;20041;-59
2023/12/06 13:14:01;;;;;;;1.40;1.30;;;;;;;;;;5127613;27;20110;-58
2023/12/06 13:16:27;;;;;;;0.90;0.90;;;;;;;;;;5128582;27;20444;-59
2023/12/06 13:18:53;;;;;;;1.10;1.05;;;;;;;;;;5127646;27;20483;-59
2023/12/06 13:21:19;;;;;;;0.73;0.70;;;;;;;;;;5126953;27;20682;-59
2023/12/06 13:23:45;;;;;;;1.17;1.08;;;;;;;;;;5127728;27;20039;-59
2023/12/06 13:26:11;;;;;;;0.60;0.60;;;;;;;;;;5127673;27;20039;-59
2023/12/06 13:28:37;;;;;;;0.80;0.80;;;;;;;;;;5127045;27;20038;-58
2023/12/06 13:31:03;;;;;;;1.00;0.90;;;;;;;;;;5127501;27;20049;-59
2023/12/06 13:33:29;;;;;;;0.70;0.70;;;;;;;;;;5128118;27;20035;-59
2023/12/06 13:35:55;;;;;;;0.93;0.93;;;;;;;;;;5108238;27;20550;-59
2023/12/06 13:38:21;;;;;;;0.60;0.60;;;;;;;;;;5127386;27;20043;-59
2023/12/06 13:40:47;;;;;;;0.70;0.70;;;;;;;;;;5127780;27;20042;-59
2023/12/06 13:43:15;;;;;;;1.02;0.93;;;;;;;;;;5126663;27;20470;-59
2023/12/06 13:45:41;;;;;;;0.80;0.80;;;;;;;;;;5127315;27;20478;-58
2023/12/06 13:48:07;;;;;;;0.95;0.85;;;;;;;;;;5125380;27;20051;-58
2023/12/06 13:50:33;;;;;;;1.40;1.30;;;;;;;;;;5122616;27;20137;-58
2023/12/06 13:53:00;;;;;;;1.45;1.35;;;;;;;;;;5122511;27;20042;-59
2023/12/06 13:55:26;;;;;;;1.17;1.17;;;;;;;;;;5121339;27;20169;-58
2023/12/06 13:57:52;;;;;;;1.42;1.33;;;;;;;;;;5122981;27;20567;-59
2023/12/06 14:00:19;;;;;;;1.80;1.70;;;;;;;;;;5124612;27;20040;-60
2023/12/06 14:02:45;;;;;;;1.63;1.50;;;;;;;;;;5124874;27;20034;-59
2023/12/06 14:05:12;;;;;;;1.30;1.20;;;;;;;;;;5120101;27;20244;-58
2023/12/06 14:07:37;;;;;;;1.10;1.00;;;;;;;;;;5115647;27;20128;-59
2023/12/06 14:10:04;;;;;;;1.10;1.00;;;;;;;;;;5125610;27;20487;-59
2023/12/06 14:12:30;;;;;;;1.10;1.00;;;;;;;;;;5127454;27;20054;-59
2023/12/06 14:14:57;;;;;;;1.33;1.23;;;;;;;;;;5122983;27;20114;-59
2023/12/06 14:17:25;;;;;;;1.33;1.23;;;;;;;;;;5111961;27;20044;-59
2023/12/06 14:19:52;;;;;;;1.30;1.20;;;;;;;;;;5120902;27;20114;-59
2023/12/06 14:22:18;;;;;;;1.10;1.00;;;;;;;;;;5117419;27;20032;-59
2023/12/06 14:24:44;;;;;;;0.95;0.85;;;;;;;;;;5101715;27;20031;-59
2023/12/06 14:27:10;;;;;;;1.20;1.10;;;;;;;;;;5119678;27;20050;-59
2023/12/06 14:29:36;;;;;;;1.25;1.10;;;;;;;;;;5119643;27;20035;-59
2023/12/06 14:32:02;;;;;;;1.50;1.40;;;;;;;;;;5114524;27;20035;-59
2023/12/06 14:34:28;;;;;;;1.00;1.00;;;;;;;;;;5114691;27;20046;-59
2023/12/06 14:36:54;;;;;;;1.08;0.98;;;;;;;;;;5124005;27;20503;-58
2023/12/06 14:39:20;;;;;;;0.77;0.77;;;;;;;;;;5117066;27;20031;-59